createdAt,value
2022-07-26T00:00:02.636Z,30.95
2022-07-26T00:02:29.335Z,30.95
2022-07-26T00:04:55.940Z,30.90
2022-07-26T00:07:22.590Z,30.90
2022-07-26T00:09:49.160Z,30.84
2022-07-26T00:12:15.817Z,30.86
2022-07-26T00:14:43.407Z,30.81
2022-07-26T00:17:10.012Z,30.80
2022-07-26T00:19:36.615Z,30.73
2022-07-26T00:22:22.046Z,30.73
2022-07-26T00:24:48.629Z,30.73
2022-07-26T00:27:15.271Z,30.68
2022-07-26T00:29:41.852Z,30.63
2022-07-26T00:32:08.510Z,30.58
2022-07-26T00:34:35.129Z,30.54
2022-07-26T00:37:01.719Z,30.56
2022-07-26T00:39:28.965Z,30.50
2022-07-26T00:41:55.558Z,30.40
2022-07-26T00:44:22.254Z,30.47
2022-07-26T00:46:48.829Z,30.43
2022-07-26T00:49:15.524Z,30.39
2022-07-26T00:51:42.219Z,30.39
2022-07-26T00:54:13.046Z,30.31
2022-07-26T00:56:39.660Z,30.27
2022-07-26T00:59:06.485Z,30.23
2022-07-26T01:01:33.477Z,30.19
2022-07-26T01:04:00.415Z,30.06
2022-07-26T01:06:27.580Z,30.08
2022-07-26T01:08:54.640Z,30.09
2022-07-26T01:11:21.250Z,30.14
2022-07-26T01:13:49.001Z,30.13
2022-07-26T01:16:15.695Z,30.09
2022-07-26T01:18:42.372Z,30.04
2022-07-26T01:21:13.399Z,30.02
2022-07-26T01:23:40.668Z,30.01
2022-07-26T01:26:07.288Z,29.97
2022-07-26T01:28:37.125Z,29.95
2022-07-26T01:31:05.094Z,29.93
2022-07-26T01:33:32.144Z,29.92
2022-07-26T01:35:59.507Z,29.91
2022-07-26T01:38:26.755Z,29.95
2022-07-26T01:40:53.772Z,29.96
2022-07-26T01:43:20.461Z,29.88
2022-07-26T01:45:47.285Z,29.84
2022-07-26T01:48:13.925Z,29.87
2022-07-26T01:50:40.561Z,29.82
2022-07-26T01:53:07.153Z,29.79
2022-07-26T01:55:34.126Z,29.77
2022-07-26T01:58:00.737Z,29.79
2022-07-26T02:00:27.463Z,29.74
2022-07-26T02:02:54.171Z,29.72
2022-07-26T02:05:21.005Z,29.67
2022-07-26T02:07:47.669Z,29.62
2022-07-26T02:10:15.186Z,29.60
2022-07-26T02:12:42.132Z,29.59
2022-07-26T02:15:10.450Z,29.53
2022-07-26T02:17:37.101Z,29.50
2022-07-26T02:20:04.491Z,29.45
2022-07-26T02:22:31.191Z,29.47
2022-07-26T02:25:02.949Z,29.46
2022-07-26T02:27:31.540Z,29.48
2022-07-26T02:29:58.168Z,29.43
2022-07-26T02:32:24.770Z,29.48
2022-07-26T02:34:51.382Z,29.54
2022-07-26T02:37:17.988Z,29.58
2022-07-26T02:39:44.621Z,29.52
2022-07-26T02:42:11.225Z,29.53
2022-07-26T02:44:37.884Z,29.47
2022-07-26T02:47:04.590Z,29.42
2022-07-26T02:49:31.194Z,29.42
2022-07-26T02:51:57.851Z,29.38
2022-07-26T02:54:24.450Z,29.38
2022-07-26T02:56:51.058Z,29.38
2022-07-26T02:59:17.691Z,29.35
2022-07-26T03:01:44.290Z,29.31
2022-07-26T03:04:11.379Z,29.29
2022-07-26T03:06:38.187Z,29.29
2022-07-26T03:09:04.787Z,29.31
2022-07-26T03:11:31.384Z,29.24
2022-07-26T03:13:57.986Z,29.28
2022-07-26T03:16:29.260Z,29.28
2022-07-26T03:18:56.474Z,29.31
2022-07-26T03:21:23.081Z,29.22
2022-07-26T03:23:49.751Z,29.13
2022-07-26T03:26:16.400Z,29.14
2022-07-26T03:28:44.512Z,29.19
2022-07-26T03:31:12.858Z,29.24
2022-07-26T03:33:40.206Z,29.18
2022-07-26T03:36:11.501Z,29.22
2022-07-26T03:38:41.980Z,29.22
2022-07-26T03:41:08.627Z,29.20
2022-07-26T03:43:40.041Z,29.23
2022-07-26T03:46:06.715Z,29.16
2022-07-26T03:48:33.530Z,29.15
2022-07-26T03:51:00.454Z,29.16
2022-07-26T03:53:27.061Z,29.24
2022-07-26T03:56:13.225Z,29.23
2022-07-26T03:58:40.231Z,29.17
2022-07-26T04:01:06.875Z,29.17
2022-07-26T04:03:33.507Z,29.24
2022-07-26T04:06:00.187Z,29.21
2022-07-26T04:08:27.933Z,29.26
2022-07-26T04:10:54.541Z,29.25
2022-07-26T04:13:21.221Z,29.31
2022-07-26T04:15:47.857Z,29.27
2022-07-26T04:18:14.509Z,29.35
2022-07-26T04:20:41.245Z,29.41
2022-07-26T04:23:11.296Z,29.50
2022-07-26T04:25:41.371Z,29.47
2022-07-26T04:28:08.987Z,29.57
2022-07-26T04:30:35.670Z,29.64
2022-07-26T04:33:02.385Z,29.75
2022-07-26T04:35:28.999Z,29.73
2022-07-26T04:37:55.635Z,29.71
2022-07-26T04:40:23.769Z,29.80
2022-07-26T04:42:50.932Z,29.88
2022-07-26T04:45:17.897Z,30.10
2022-07-26T04:47:45.430Z,30.14
2022-07-26T04:50:15.836Z,30.17
2022-07-26T04:52:42.439Z,30.25
2022-07-26T04:55:09.677Z,30.16
2022-07-26T04:57:36.321Z,30.16
2022-07-26T05:00:20.670Z,30.16
2022-07-26T05:02:49.638Z,30.30
2022-07-26T05:05:16.299Z,30.29
2022-07-26T05:07:44.483Z,30.41
2022-07-26T05:10:11.080Z,30.52
2022-07-26T05:12:37.733Z,30.62
2022-07-26T05:15:05.193Z,30.70
2022-07-26T05:17:31.807Z,30.79
2022-07-26T05:20:03.393Z,30.74
2022-07-26T05:22:30.256Z,30.93
2022-07-26T05:24:56.851Z,31.10
2022-07-26T05:27:23.457Z,30.99
2022-07-26T05:29:50.042Z,31.19
2022-07-26T05:32:16.764Z,31.30
2022-07-26T05:34:43.372Z,31.14
2022-07-26T05:37:09.996Z,31.38
2022-07-26T05:39:36.627Z,31.57
2022-07-26T05:42:03.258Z,31.66
2022-07-26T05:44:29.885Z,31.77
2022-07-26T05:46:57.009Z,31.59
2022-07-26T05:49:23.643Z,31.75
2022-07-26T05:51:50.235Z,31.72
2022-07-26T05:54:17.103Z,31.97
2022-07-26T05:56:49.428Z,32.23
2022-07-26T05:59:16.080Z,32.34
2022-07-26T06:01:42.654Z,32.14
2022-07-26T06:04:10.686Z,32.58
2022-07-26T06:06:37.587Z,32.80
2022-07-26T06:09:04.256Z,32.98
2022-07-26T06:11:30.860Z,33.09
2022-07-26T06:13:57.488Z,33.32
2022-07-26T06:16:24.093Z,33.77
2022-07-26T06:18:50.864Z,34.18
2022-07-26T06:21:17.774Z,34.24
2022-07-26T06:23:44.389Z,34.55
2022-07-26T06:26:12.283Z,34.87
2022-07-26T06:28:39.534Z,34.99
2022-07-26T06:31:06.177Z,35.31
2022-07-26T06:33:32.784Z,35.41
2022-07-26T06:35:59.441Z,35.50
2022-07-26T06:38:26.120Z,35.78
2022-07-26T06:40:52.793Z,35.92
2022-07-26T06:43:19.733Z,36.24
2022-07-26T06:45:46.437Z,36.04
2022-07-26T06:48:14.300Z,36.13
2022-07-26T06:50:41.293Z,35.91
2022-07-26T06:53:07.881Z,36.30
2022-07-26T06:55:34.550Z,36.46
2022-07-26T06:58:01.132Z,36.57
2022-07-26T07:00:27.749Z,36.48
2022-07-26T07:02:54.341Z,36.34
2022-07-26T07:05:21.090Z,36.77
2022-07-26T07:07:47.807Z,36.94
2022-07-26T07:10:14.682Z,37.42
2022-07-26T07:12:43.603Z,37.65
2022-07-26T07:15:10.840Z,38.12
2022-07-26T07:17:37.526Z,38.23
2022-07-26T07:20:05.412Z,38.73
2022-07-26T07:22:32.312Z,39.31
2022-07-26T07:24:59.010Z,39.97
2022-07-26T07:27:25.627Z,40.41
2022-07-26T07:29:53.951Z,40.80
2022-07-26T07:32:22.879Z,41.37
2022-07-26T07:34:51.408Z,42.08
2022-07-26T07:37:18.103Z,42.34
2022-07-26T07:39:50.359Z,42.71
2022-07-26T07:42:18.215Z,43.29
2022-07-26T07:44:44.814Z,43.64
2022-07-26T07:47:12.080Z,43.72
2022-07-26T07:49:38.824Z,44.33
2022-07-26T07:52:05.716Z,45.17
2022-07-26T07:54:32.351Z,44.94
2022-07-26T07:56:58.973Z,45.04
2022-07-26T07:59:25.678Z,45.38
2022-07-26T08:01:52.521Z,45.09
2022-07-26T08:04:19.250Z,45.60
2022-07-26T08:06:50.256Z,45.66
2022-07-26T08:09:18.284Z,45.03
2022-07-26T08:11:45.101Z,44.79
2022-07-26T08:14:11.697Z,45.00
2022-07-26T08:16:39.878Z,45.15
2022-07-26T08:19:07.140Z,45.07
2022-07-26T08:21:35.461Z,44.60
2022-07-26T08:24:02.288Z,44.15
2022-07-26T08:26:28.889Z,43.46
2022-07-26T08:28:59.898Z,43.47
2022-07-26T08:31:35.637Z,42.19
2022-07-26T08:34:02.346Z,41.96
2022-07-26T08:36:32.817Z,42.95
2022-07-26T08:39:00.185Z,44.23
2022-07-26T08:41:26.828Z,44.28
2022-07-26T08:43:53.950Z,44.63
2022-07-26T08:46:25.853Z,44.76
2022-07-26T08:48:54.817Z,44.83
2022-07-26T08:51:22.704Z,45.17
2022-07-26T08:53:49.817Z,45.17
2022-07-26T08:56:16.399Z,45.77
2022-07-26T08:58:43.914Z,45.67
2022-07-26T09:01:14.395Z,45.41
2022-07-26T09:03:42.064Z,46.23
2022-07-26T09:06:13.312Z,46.21
2022-07-26T09:08:40.007Z,45.78
2022-07-26T09:11:25.672Z,45.06
2022-07-26T09:13:54.204Z,45.61
2022-07-26T09:16:21.035Z,45.41
2022-07-26T09:18:47.721Z,44.72
2022-07-26T09:21:31.072Z,43.30
2022-07-26T09:23:58.456Z,42.75
2022-07-26T09:26:25.567Z,41.83
2022-07-26T09:29:21.536Z,41.62
2022-07-26T09:31:48.157Z,40.91
2022-07-26T09:34:24.319Z,40.56
2022-07-26T09:36:51.569Z,39.94
2022-07-26T09:39:18.340Z,39.87
2022-07-26T09:42:26.738Z,39.36
2022-07-26T09:44:54.254Z,39.06
2022-07-26T09:47:20.930Z,38.35
2022-07-26T09:49:47.612Z,38.06
2022-07-26T09:52:18.672Z,37.66
2022-07-26T09:54:49.440Z,37.36
2022-07-26T09:57:20.412Z,36.97
2022-07-26T09:59:47.238Z,36.58
2022-07-26T10:02:14.209Z,36.23
2022-07-26T10:04:44.416Z,35.82
2022-07-26T10:07:11.062Z,35.42
2022-07-26T10:09:50.539Z,35.05
2022-07-26T10:12:17.245Z,34.60
2022-07-26T10:14:47.639Z,34.36
2022-07-26T10:17:31.398Z,34.01
2022-07-26T10:19:58.647Z,33.81
2022-07-26T10:22:27.233Z,33.05
2022-07-26T10:24:58.041Z,32.93
2022-07-26T10:27:37.053Z,32.89
2022-07-26T10:30:30.174Z,32.69
2022-07-26T10:33:01.385Z,32.68
2022-07-26T10:35:46.009Z,32.71
2022-07-26T10:38:26.332Z,32.61
2022-07-26T10:41:00.362Z,32.48
2022-07-26T10:43:40.817Z,32.76
2022-07-26T10:46:18.152Z,32.32
2022-07-26T10:49:03.538Z,32.24
2022-07-26T10:51:38.081Z,32.27
2022-07-26T10:54:09.934Z,32.18
2022-07-26T10:56:36.993Z,32.13
2022-07-26T10:59:06.725Z,31.83
2022-07-26T11:01:37.391Z,31.57
2022-07-26T11:04:04.277Z,31.92
2022-07-26T11:06:31.185Z,31.90
2022-07-26T11:08:57.770Z,31.88
2022-07-26T11:11:31.962Z,32.01
2022-07-26T11:14:09.442Z,32.21
2022-07-26T11:16:46.937Z,32.13
2022-07-26T11:19:20.741Z,32.31
2022-07-26T11:21:54.536Z,32.31
2022-07-26T11:24:22.158Z,32.25
2022-07-26T11:26:48.824Z,32.20
2022-07-26T11:29:16.959Z,32.07
2022-07-26T11:31:51.357Z,32.06
2022-07-26T11:34:27.489Z,31.96
2022-07-26T11:36:55.540Z,32.01
2022-07-26T11:39:26.368Z,32.00
2022-07-26T11:42:01.025Z,32.06
2022-07-26T11:44:27.807Z,31.96
2022-07-26T11:46:54.580Z,32.07
2022-07-26T11:49:41.421Z,32.31
2022-07-26T11:52:10.038Z,32.41
2022-07-26T11:54:50.086Z,32.42
2022-07-26T11:57:16.881Z,32.22
2022-07-26T11:59:44.429Z,32.25
2022-07-26T12:02:12.156Z,32.38
2022-07-26T12:04:40.212Z,32.52
2022-07-26T12:07:12.304Z,32.82
2022-07-26T12:09:49.838Z,32.79
2022-07-26T12:12:20.459Z,32.66
2022-07-26T12:15:05.598Z,32.86
2022-07-26T12:17:34.663Z,32.80
2022-07-26T12:20:15.777Z,33.16
2022-07-26T12:23:13.475Z,33.07
2022-07-26T12:25:44.924Z,33.18
2022-07-26T12:28:15.822Z,33.30
2022-07-26T12:30:42.456Z,33.54
2022-07-26T12:33:09.073Z,33.38
2022-07-26T12:35:35.927Z,33.55
2022-07-26T12:38:02.615Z,33.51
2022-07-26T12:40:30.477Z,33.41
2022-07-26T12:43:02.645Z,33.36
2022-07-26T12:45:33.684Z,33.63
2022-07-26T12:48:01.681Z,33.34
2022-07-26T12:50:29.574Z,33.34
2022-07-26T12:53:03.381Z,33.44
2022-07-26T12:55:30.075Z,33.50
2022-07-26T12:57:57.165Z,33.38
2022-07-26T13:00:24.064Z,33.29
2022-07-26T13:02:51.264Z,33.19
2022-07-26T13:05:18.000Z,33.25
2022-07-26T13:07:44.671Z,33.28
2022-07-26T13:12:59.083Z,33.36
2022-07-26T13:15:35.891Z,33.26
2022-07-26T13:18:03.251Z,33.15
2022-07-26T13:20:29.851Z,33.07
2022-07-26T13:22:56.479Z,33.43
2022-07-26T13:25:23.149Z,33.68
2022-07-26T13:27:51.513Z,34.15
2022-07-26T13:30:18.388Z,34.36
2022-07-26T13:32:45.118Z,34.44
2022-07-26T13:35:11.780Z,34.70
2022-07-26T13:37:39.238Z,34.47
2022-07-26T13:40:06.448Z,34.42
2022-07-26T13:42:33.066Z,33.83
2022-07-26T13:44:59.668Z,33.96
2022-07-26T13:47:26.286Z,33.89
2022-07-26T13:49:52.887Z,33.61
2022-07-26T13:52:19.536Z,33.70
2022-07-26T13:54:46.153Z,33.62
2022-07-26T13:57:12.726Z,33.55
2022-07-26T13:59:39.392Z,33.88
2022-07-26T14:02:06.086Z,34.03
2022-07-26T14:04:32.814Z,34.00
2022-07-26T14:06:59.433Z,33.87
2022-07-26T14:09:26.067Z,33.64
2022-07-26T14:11:52.680Z,33.68
2022-07-26T14:14:19.292Z,33.76
2022-07-26T14:16:48.079Z,33.70
2022-07-26T14:19:16.179Z,33.89
2022-07-26T14:21:47.269Z,33.93
2022-07-26T14:24:26.510Z,34.03
2022-07-26T14:26:56.826Z,34.02
2022-07-26T14:29:27.230Z,34.13
2022-07-26T14:31:53.958Z,34.19
2022-07-26T14:34:20.613Z,34.39
2022-07-26T14:36:47.246Z,34.33
2022-07-26T14:39:13.845Z,34.40
2022-07-26T14:41:40.451Z,34.30
2022-07-26T14:44:07.220Z,34.27
2022-07-26T14:46:33.975Z,34.31
2022-07-26T14:49:00.625Z,34.29
2022-07-26T14:51:27.300Z,34.22
2022-07-26T14:53:53.906Z,34.11
2022-07-26T14:56:20.656Z,34.19
2022-07-26T14:58:47.272Z,34.25
2022-07-26T15:01:14.008Z,34.17
2022-07-26T15:03:40.661Z,34.23
2022-07-26T15:06:07.305Z,34.22
2022-07-26T15:08:33.902Z,34.14
2022-07-26T15:11:00.497Z,34.14
2022-07-26T15:13:27.272Z,34.25
2022-07-26T15:15:53.973Z,33.99
2022-07-26T15:18:20.559Z,34.13
2022-07-26T15:20:47.165Z,34.12
2022-07-26T15:23:15.219Z,33.97
2022-07-26T15:25:41.865Z,34.00
2022-07-26T15:28:08.655Z,34.01
2022-07-26T15:30:35.624Z,34.14
2022-07-26T15:33:02.218Z,33.82
2022-07-26T15:35:29.627Z,33.91
2022-07-26T15:37:56.379Z,33.88
2022-07-26T15:40:23.022Z,33.97
2022-07-26T15:42:51.954Z,34.08
2022-07-26T15:45:19.654Z,33.99
2022-07-26T15:48:00.952Z,34.00
2022-07-26T15:50:31.246Z,34.11
2022-07-26T15:52:57.881Z,33.93
2022-07-26T15:55:24.554Z,33.86
2022-07-26T15:57:51.967Z,33.80
2022-07-26T16:00:18.750Z,33.92
2022-07-26T16:02:45.528Z,33.85
2022-07-26T16:05:12.276Z,33.77
2022-07-26T16:07:41.545Z,33.74
2022-07-26T16:10:09.662Z,33.80
2022-07-26T16:12:36.300Z,33.77
2022-07-26T16:15:03.001Z,33.73
2022-07-26T16:17:29.607Z,33.52
2022-07-26T16:19:56.303Z,33.32
2022-07-26T16:22:23.097Z,33.47
2022-07-26T16:24:49.727Z,33.59
2022-07-26T16:27:16.391Z,33.54
2022-07-26T16:29:42.995Z,33.46
2022-07-26T16:32:10.472Z,33.59
2022-07-26T16:34:37.134Z,33.63
2022-07-26T16:37:04.143Z,33.56
2022-07-26T16:39:30.968Z,33.56
2022-07-26T16:41:59.030Z,33.54
2022-07-26T16:44:28.661Z,33.55
2022-07-26T16:46:55.390Z,33.46
2022-07-26T16:49:22.227Z,33.30
2022-07-26T16:51:48.995Z,33.33
2022-07-26T16:54:15.617Z,33.39
2022-07-26T16:56:42.241Z,33.15
2022-07-26T16:59:10.587Z,33.32
2022-07-26T17:01:37.552Z,33.26
2022-07-26T17:04:04.197Z,33.18
2022-07-26T17:06:30.958Z,33.18
2022-07-26T17:08:57.554Z,33.10
2022-07-26T17:11:24.197Z,32.93
2022-07-26T17:13:50.795Z,32.93
2022-07-26T17:16:24.460Z,32.85
2022-07-26T17:18:52.309Z,32.83
2022-07-26T17:21:18.930Z,32.90
2022-07-26T17:23:45.612Z,32.85
2022-07-26T17:26:12.275Z,32.75
2022-07-26T17:28:38.866Z,32.69
2022-07-26T17:31:05.517Z,32.67
2022-07-26T17:33:32.108Z,32.60
2022-07-26T17:36:03.242Z,32.56
2022-07-26T17:38:33.535Z,32.69
2022-07-26T17:41:00.882Z,32.50
2022-07-26T17:43:36.370Z,32.43
2022-07-26T17:46:03.888Z,32.38
2022-07-26T17:48:30.628Z,32.30
2022-07-26T17:50:57.311Z,32.29
2022-07-26T17:53:33.919Z,32.23
2022-07-26T17:56:01.751Z,32.08
2022-07-26T17:58:28.421Z,31.96
2022-07-26T18:00:55.071Z,31.90
2022-07-26T18:03:23.138Z,31.92
2022-07-26T18:05:50.495Z,31.89
2022-07-26T18:08:17.185Z,31.56
2022-07-26T18:10:48.909Z,31.62
2022-07-26T18:13:17.823Z,31.63
2022-07-26T18:15:44.610Z,31.55
2022-07-26T18:18:11.263Z,31.54
2022-07-26T18:20:37.931Z,31.52
2022-07-26T18:23:04.774Z,31.53
2022-07-26T18:25:31.394Z,31.41
2022-07-26T18:28:00.889Z,31.25
2022-07-26T18:30:32.037Z,31.23
2022-07-26T18:32:59.451Z,31.25
2022-07-26T18:35:26.091Z,31.13
2022-07-26T18:37:53.081Z,31.21
2022-07-26T18:40:23.336Z,31.22
2022-07-26T18:42:50.026Z,31.17
2022-07-26T18:45:16.725Z,31.19
2022-07-26T18:47:43.448Z,31.09
2022-07-26T18:50:11.079Z,31.02
2022-07-26T18:52:38.212Z,30.94
2022-07-26T18:55:07.264Z,30.91
2022-07-26T18:57:35.329Z,30.81
2022-07-26T19:00:06.159Z,30.80
2022-07-26T19:02:32.786Z,30.78
2022-07-26T19:04:59.458Z,30.81
2022-07-26T19:07:26.123Z,30.85
2022-07-26T19:09:58.196Z,30.69
2022-07-26T19:12:26.573Z,30.76
2022-07-26T19:14:53.219Z,30.63
2022-07-26T19:17:19.851Z,30.63
2022-07-26T19:19:46.551Z,30.62
2022-07-26T19:22:13.209Z,30.67
2022-07-26T19:24:40.061Z,30.62
2022-07-26T19:27:08.326Z,30.72
2022-07-26T19:29:35.415Z,30.63
2022-07-26T19:32:02.984Z,30.58
2022-07-26T19:34:29.613Z,30.55
2022-07-26T19:36:56.309Z,30.55
2022-07-26T19:39:23.338Z,30.52
2022-07-26T19:41:50.015Z,30.48
2022-07-26T19:44:16.921Z,30.39
2022-07-26T19:46:44.167Z,30.46
2022-07-26T19:49:12.544Z,30.39
2022-07-26T19:51:39.581Z,30.34
2022-07-26T19:54:08.788Z,30.23
2022-07-26T19:56:35.552Z,30.31
2022-07-26T19:59:02.159Z,30.27
2022-07-26T20:01:29.233Z,30.19
2022-07-26T20:03:55.988Z,30.22
2022-07-26T20:06:23.279Z,30.12
2022-07-26T20:08:50.538Z,30.11
2022-07-26T20:11:19.827Z,29.97
2022-07-26T20:13:47.058Z,30.07
2022-07-26T20:16:13.843Z,30.02
2022-07-26T20:18:40.473Z,29.95
2022-07-26T20:21:07.087Z,30.03
2022-07-26T20:23:34.033Z,30.05
2022-07-26T20:26:01.158Z,29.93
2022-07-26T20:28:27.874Z,29.71
2022-07-26T20:30:54.999Z,29.74
2022-07-26T20:33:21.763Z,29.78
2022-07-26T20:35:54.508Z,29.74
2022-07-26T20:38:21.637Z,29.67
2022-07-26T20:40:48.270Z,29.62
2022-07-26T20:43:14.972Z,29.68
2022-07-26T20:45:41.629Z,29.62
2022-07-26T20:48:08.620Z,29.61
2022-07-26T20:50:36.471Z,29.54
2022-07-26T20:53:03.474Z,29.52
2022-07-26T20:55:30.132Z,29.42
2022-07-26T20:57:56.820Z,29.45
2022-07-26T21:00:25.311Z,29.37
2022-07-26T21:02:53.697Z,29.47
2022-07-26T21:05:20.471Z,29.40
2022-07-26T21:07:55.120Z,29.32
2022-07-26T21:10:27.521Z,29.29
2022-07-26T21:12:57.255Z,29.31
2022-07-26T21:15:24.006Z,29.34
2022-07-26T21:17:52.384Z,29.23
2022-07-26T21:20:19.183Z,29.31
2022-07-26T21:22:45.900Z,29.30
2022-07-26T21:25:12.476Z,29.28
2022-07-26T21:27:39.308Z,29.25
2022-07-26T21:30:06.897Z,29.25
2022-07-26T21:32:33.491Z,29.04
2022-07-26T21:35:01.378Z,29.18
2022-07-26T21:37:28.066Z,29.11
2022-07-26T21:39:54.686Z,29.05
2022-07-26T21:42:21.285Z,29.03
2022-07-26T21:44:53.477Z,28.97
2022-07-26T21:47:20.057Z,28.97
2022-07-26T21:49:46.725Z,28.91
2022-07-26T21:52:13.314Z,28.90
2022-07-26T21:54:40.062Z,28.83
2022-07-26T21:57:10.629Z,28.67
2022-07-26T21:59:37.392Z,28.74
2022-07-26T22:02:06.364Z,28.80
2022-07-26T22:04:33.288Z,28.79
2022-07-26T22:06:59.898Z,28.72
2022-07-26T22:09:26.539Z,28.79
2022-07-26T22:11:53.208Z,28.55
2022-07-26T22:14:21.040Z,28.56
2022-07-26T22:16:49.104Z,28.55
2022-07-26T22:19:15.888Z,28.45
2022-07-26T22:21:42.463Z,28.40
2022-07-26T22:24:09.173Z,28.49
2022-07-26T22:26:36.194Z,28.54
2022-07-26T22:29:02.843Z,28.54
2022-07-26T22:31:29.568Z,28.45
2022-07-26T22:33:56.194Z,28.55
2022-07-26T22:36:22.830Z,28.55
2022-07-26T22:38:49.502Z,28.51
2022-07-26T22:41:16.175Z,28.53
2022-07-26T22:43:42.775Z,28.57
2022-07-26T22:46:09.413Z,28.47
2022-07-26T22:48:38.576Z,28.41
2022-07-26T22:51:05.385Z,28.41
2022-07-26T22:53:31.992Z,28.43
2022-07-26T22:55:58.582Z,28.40
2022-07-26T22:58:25.214Z,28.38
2022-07-26T23:00:51.883Z,28.20
2022-07-26T23:03:20.685Z,28.25
2022-07-26T23:05:48.818Z,28.26
2022-07-26T23:08:45.635Z,28.24
2022-07-26T23:11:02.379Z,28.15
2022-07-26T23:13:29.030Z,28.11
2022-07-26T23:16:00.519Z,28.14
2022-07-26T23:18:27.680Z,28.13
2022-07-26T23:20:54.265Z,28.16
2022-07-26T23:23:20.899Z,28.15
2022-07-26T23:25:47.636Z,28.07
2022-07-26T23:28:35.941Z,28.10
2022-07-26T23:31:05.219Z,27.94
2022-07-26T23:33:52.971Z,28.03
2022-07-26T23:36:18.494Z,28.04
2022-07-26T23:38:45.106Z,27.97
2022-07-26T23:41:11.754Z,27.95
2022-07-26T23:43:38.396Z,27.92
2022-07-26T23:46:04.969Z,27.91
2022-07-26T23:48:31.490Z,27.92
2022-07-26T23:50:58.190Z,27.89
2022-07-26T23:53:26.800Z,27.79
2022-07-26T23:55:53.893Z,27.77
2022-07-26T23:58:20.514Z,27.79
